createdAt,value
2018-03-07T00:00:51.248Z,95897.92
2018-03-07T00:03:21.349Z,95899.14
2018-03-07T00:05:50.936Z,95910.00
2018-03-07T00:08:20.622Z,95911.38
2018-03-07T00:10:51.208Z,95910.45
2018-03-07T00:13:21.285Z,95922.07
2018-03-07T00:16:19.149Z,95924.48
2018-03-07T00:25:11.103Z,95927.62
2018-03-07T00:27:43.129Z,95924.63
2018-03-07T00:30:12.721Z,95934.30
2018-03-07T00:32:42.243Z,95936.75
2018-03-07T00:35:11.771Z,95939.56
2018-03-07T00:37:43.206Z,95941.04
2018-03-07T00:40:13.141Z,95942.84
2018-03-07T00:42:43.173Z,95948.88
2018-03-07T00:45:12.666Z,95948.94
2018-03-07T00:47:42.277Z,95955.19
2018-03-07T00:50:11.825Z,95951.38
2018-03-07T00:52:42.072Z,95953.84
2018-03-07T00:55:11.687Z,95952.21
2018-03-07T00:57:41.194Z,95951.55
2018-03-07T01:00:10.751Z,95957.31
2018-03-07T01:02:41.126Z,95961.97
2018-03-07T01:05:11.947Z,95953.86
2018-03-07T01:07:41.680Z,95956.96
2018-03-07T01:10:11.177Z,95956.51
2018-03-07T01:12:40.897Z,95968.58
2018-03-07T01:15:10.600Z,95966.36
2018-03-07T01:17:40.108Z,95959.46
2018-03-07T01:20:10.428Z,95960.78
2018-03-07T01:22:40.505Z,95957.19
2018-03-07T01:25:10.855Z,95962.25
2018-03-07T01:27:40.418Z,95956.69
2018-03-07T01:30:10.894Z,95951.16
2018-03-07T01:32:40.659Z,95959.33
2018-03-07T01:35:10.236Z,95954.37
2018-03-07T01:37:41.235Z,95962.94
2018-03-07T01:40:13.023Z,95963.45
2018-03-07T01:42:45.062Z,95961.63
2018-03-07T01:45:16.160Z,95965.53
2018-03-07T01:47:48.212Z,95971.11
2018-03-07T01:50:17.746Z,95969.53
2018-03-07T01:52:47.737Z,95964.57
2018-03-07T01:55:18.789Z,95972.58
2018-03-07T01:57:48.295Z,95970.96
2018-03-07T02:00:18.541Z,95970.55
2018-03-07T02:02:48.452Z,95965.23
2018-03-07T02:05:23.039Z,95968.31
2018-03-07T02:07:53.003Z,95961.02
2018-03-07T02:10:24.698Z,95960.80
2018-03-07T02:12:54.230Z,95955.84
2018-03-07T02:15:25.117Z,95959.34
2018-03-07T02:17:54.767Z,95965.94
2018-03-07T02:20:25.590Z,95963.55
2018-03-07T02:22:55.208Z,95970.19
2018-03-07T02:25:25.008Z,95967.00
2018-03-07T02:27:57.256Z,95967.16
2018-03-07T02:30:26.877Z,95974.34
2018-03-07T02:32:56.740Z,95970.78
2018-03-07T02:35:36.460Z,95966.03
2018-03-07T02:38:08.092Z,95972.27
2018-03-07T02:40:44.988Z,95978.30
2018-03-07T02:43:23.723Z,95980.02
2018-03-07T02:45:54.479Z,95972.56
2018-03-07T02:48:34.484Z,95976.42
2018-03-07T02:51:07.110Z,95980.31
2018-03-07T02:53:41.096Z,95978.33
2018-03-07T02:56:11.025Z,95975.75
2018-03-07T02:58:41.659Z,95982.38
2018-03-07T03:01:11.171Z,95971.19
2018-03-07T03:03:41.530Z,95980.00
2018-03-07T03:06:11.592Z,95983.86
2018-03-07T03:08:41.315Z,95979.54
2018-03-07T03:11:12.390Z,95982.84
2018-03-07T03:13:43.498Z,95984.39
2018-03-07T03:16:13.074Z,95977.31
2018-03-07T03:18:42.586Z,95985.71
2018-03-07T03:21:12.234Z,95979.03
2018-03-07T03:23:41.715Z,95970.61
2018-03-07T03:26:12.449Z,95972.14
2018-03-07T03:28:42.393Z,95961.95
2018-03-07T03:31:11.971Z,95957.59
2018-03-07T03:33:41.497Z,95956.42
2018-03-07T03:36:10.943Z,95957.95
2018-03-07T03:38:42.367Z,95954.81
2018-03-07T03:41:12.060Z,95948.32
2018-03-07T03:43:42.818Z,95944.97
2018-03-07T03:46:12.845Z,95952.77
2018-03-07T03:48:43.197Z,95955.30
2018-03-07T03:51:12.872Z,95946.64
2018-03-07T03:53:43.923Z,95944.70
2018-03-07T03:56:14.077Z,95940.55
2018-03-07T03:58:43.715Z,95946.18
2018-03-07T04:01:14.291Z,95937.46
2018-03-07T04:03:44.665Z,95933.98
2018-03-07T04:06:14.803Z,95945.52
2018-03-07T04:08:49.500Z,95944.86
2018-03-07T04:11:33.162Z,95950.59
2018-03-07T04:14:07.859Z,95950.28
2018-03-07T04:16:42.838Z,95962.53
2018-03-07T04:19:12.834Z,95970.69
2018-03-07T04:22:05.286Z,95962.42
2018-03-07T04:24:35.986Z,95962.23
2018-03-07T04:27:05.940Z,95960.47
2018-03-07T04:29:46.120Z,95959.23
2018-03-07T04:32:31.104Z,95959.39
2018-03-07T04:35:03.889Z,95956.25
2018-03-07T04:37:33.691Z,95958.53
2018-03-07T04:40:12.034Z,95968.96
2018-03-07T04:42:49.692Z,95967.59
2018-03-07T04:45:21.657Z,95971.98
2018-03-07T04:47:52.720Z,95982.93
2018-03-07T04:50:28.523Z,95978.96
2018-03-07T04:53:06.688Z,95986.02
2018-03-07T04:55:41.954Z,95994.31
2018-03-07T04:58:13.177Z,95995.38
2018-03-07T05:00:49.411Z,95996.73
2018-03-07T05:03:19.699Z,95995.38
2018-03-07T05:05:53.371Z,96000.03
2018-03-07T05:08:24.648Z,95996.44
2018-03-07T05:10:56.284Z,96000.48
2018-03-07T05:13:29.713Z,96000.72
2018-03-07T05:16:06.834Z,95997.19
2018-03-07T05:18:38.926Z,95996.78
2018-03-07T05:21:10.577Z,95993.59
2018-03-07T05:23:42.223Z,95993.13
2018-03-07T05:26:14.817Z,95999.62
2018-03-07T05:28:44.481Z,95998.44
2018-03-07T05:31:15.809Z,95989.67
2018-03-07T05:33:46.090Z,95995.80
2018-03-07T05:36:16.433Z,95999.69
2018-03-07T05:38:46.063Z,95994.73
2018-03-07T05:41:15.656Z,95984.54
2018-03-07T05:43:45.337Z,95987.27
2018-03-07T05:46:14.947Z,95996.44
2018-03-07T05:48:51.244Z,95996.28
2018-03-07T05:51:21.688Z,95987.22
2018-03-07T05:53:51.871Z,95993.65
2018-03-07T05:56:21.812Z,95991.72
2018-03-07T05:58:52.460Z,95983.12
2018-03-07T06:01:22.135Z,95973.66
2018-03-07T06:03:51.618Z,95982.45
2018-03-07T06:06:21.143Z,95981.23
2018-03-07T06:08:50.674Z,95975.55
2018-03-07T06:11:21.214Z,95981.64
2018-03-07T06:13:51.131Z,95980.43
2018-03-07T06:16:21.362Z,95988.02
2018-03-07T06:18:51.263Z,95974.96
2018-03-07T06:21:21.052Z,95983.56
2018-03-07T06:23:50.689Z,95987.27
2018-03-07T06:26:21.635Z,95987.27
2018-03-07T06:28:53.703Z,95988.81
2018-03-07T06:31:25.215Z,95999.14
2018-03-07T06:33:58.630Z,95994.63
2018-03-07T06:36:32.495Z,96000.88
2018-03-07T06:39:06.088Z,96011.03
2018-03-07T06:41:36.676Z,96008.86
2018-03-07T06:44:09.026Z,96009.02
2018-03-07T06:46:40.127Z,96014.27
2018-03-07T06:49:11.342Z,96007.63
2018-03-07T06:51:42.570Z,96011.82
2018-03-07T06:54:14.565Z,96015.11
2018-03-07T06:56:45.225Z,96023.10
2018-03-07T06:59:18.064Z,96027.77
2018-03-07T07:01:47.902Z,96031.40
2018-03-07T07:04:22.206Z,96035.90
2018-03-07T07:06:54.774Z,96025.93
2018-03-07T07:09:29.189Z,96030.16
2018-03-07T07:11:58.995Z,96028.80
2018-03-07T07:14:28.964Z,96032.14
2018-03-07T07:16:59.571Z,96027.36
2018-03-07T07:19:30.785Z,96033.78
2018-03-07T07:22:01.073Z,96042.29
2018-03-07T07:24:31.736Z,96040.52
2018-03-07T07:27:07.916Z,96039.72
2018-03-07T07:29:37.573Z,96044.28
2018-03-07T07:32:07.120Z,96040.02
2018-03-07T07:34:36.662Z,96036.27
2018-03-07T07:37:07.078Z,96047.28
2018-03-07T07:39:37.704Z,96046.75
2018-03-07T07:42:08.852Z,96052.45
2018-03-07T07:44:40.200Z,96056.09
2018-03-07T07:47:10.894Z,96058.77
2018-03-07T07:49:41.466Z,96056.56
2018-03-07T07:52:11.131Z,96067.09
2018-03-07T07:54:41.643Z,96068.02
2018-03-07T07:57:13.460Z,96060.45
2018-03-07T07:59:44.607Z,96071.11
2018-03-07T08:02:14.991Z,96067.89
2018-03-07T08:04:44.702Z,96080.64
2018-03-07T08:07:15.194Z,96075.37
2018-03-07T08:09:44.963Z,96085.30
2018-03-07T08:12:14.873Z,96092.66
2018-03-07T08:14:45.001Z,96090.48
2018-03-07T08:17:16.761Z,96080.59
2018-03-07T08:19:48.366Z,96079.12
2018-03-07T08:22:18.346Z,96078.36
2018-03-07T08:24:50.541Z,96078.87
2018-03-07T08:27:21.169Z,96078.21
2018-03-07T08:29:53.471Z,96073.38
2018-03-07T08:32:24.168Z,96086.13
2018-03-07T08:34:53.981Z,96088.30
2018-03-07T08:37:25.257Z,96086.23
2018-03-07T08:39:56.295Z,96096.06
2018-03-07T08:42:27.416Z,96093.59
2018-03-07T08:44:57.351Z,96094.60
2018-03-07T08:47:28.594Z,96097.28
2018-03-07T08:49:59.906Z,96100.28
2018-03-07T08:52:30.770Z,96098.40
2018-03-07T08:55:01.680Z,96105.70
2018-03-07T08:57:31.602Z,96109.06
2018-03-07T09:00:02.362Z,96108.66
2018-03-07T09:02:31.993Z,96094.59
2018-03-07T09:05:02.372Z,96098.30
2018-03-07T09:07:32.000Z,96096.47
2018-03-07T09:10:03.695Z,96095.45
2018-03-07T09:12:34.434Z,96103.37
2018-03-07T09:15:05.973Z,96096.31
2018-03-07T09:17:36.103Z,96109.62
2018-03-07T09:20:07.056Z,96111.78
2018-03-07T09:22:38.767Z,96112.53
2018-03-07T09:25:08.331Z,96112.45
2018-03-07T09:27:37.812Z,96102.03
2018-03-07T09:30:08.271Z,96102.22
2018-03-07T09:32:38.581Z,96105.09
2018-03-07T09:35:08.442Z,96113.55
2018-03-07T09:37:38.089Z,96115.09
2018-03-07T09:40:08.821Z,96113.91
2018-03-07T09:42:39.305Z,96114.70
2018-03-07T09:45:09.329Z,96124.27
2018-03-07T09:47:39.015Z,96122.41
2018-03-07T09:50:09.842Z,96115.55
2018-03-07T09:52:39.498Z,96112.02
2018-03-07T09:55:09.006Z,96119.61
2018-03-07T09:57:40.569Z,96120.02
2018-03-07T10:00:21.425Z,96117.17
2018-03-07T10:02:57.441Z,96129.36
2018-03-07T10:05:37.512Z,96124.73
2018-03-07T10:08:08.262Z,96128.97
2018-03-07T10:10:37.859Z,96124.16
2018-03-07T10:13:07.875Z,96117.38
2018-03-07T10:15:37.466Z,96119.31
2018-03-07T10:18:08.024Z,96137.37
2018-03-07T10:20:38.440Z,96138.89
2018-03-07T10:23:08.132Z,96131.03
2018-03-07T10:25:37.603Z,96131.97
2018-03-07T10:28:07.300Z,96113.14
2018-03-07T10:30:36.840Z,96120.91
2018-03-07T10:33:11.914Z,96121.75
2018-03-07T10:35:42.138Z,96121.56
2018-03-07T10:38:18.120Z,96127.77
2018-03-07T10:40:47.710Z,96139.61
2018-03-07T10:43:18.023Z,96132.50
2018-03-07T10:45:47.684Z,96132.50
2018-03-07T10:48:18.117Z,96130.51
2018-03-07T10:50:48.695Z,96131.81
2018-03-07T10:53:18.251Z,96123.24
2018-03-07T10:55:47.807Z,96118.80
2018-03-07T10:58:17.955Z,96116.59
2018-03-07T11:00:48.944Z,96123.12
2018-03-07T11:03:18.597Z,96133.42
2018-03-07T11:05:48.539Z,96128.77
2018-03-07T11:08:18.910Z,96122.65
2018-03-07T11:10:49.583Z,96117.31
2018-03-07T11:13:19.180Z,96125.57
2018-03-07T11:15:51.831Z,96117.12
2018-03-07T11:18:21.330Z,96128.52
2018-03-07T11:20:51.135Z,96130.04
2018-03-07T11:23:20.867Z,96128.67
2018-03-07T11:25:50.764Z,96123.45
2018-03-07T11:28:20.328Z,96122.19
2018-03-07T11:30:50.642Z,96131.00
2018-03-07T11:33:20.595Z,96134.48
2018-03-07T11:35:51.856Z,96129.98
2018-03-07T11:38:21.653Z,96138.67
2018-03-07T11:40:52.477Z,96141.25
2018-03-07T11:43:23.492Z,96139.66
2018-03-07T11:45:54.282Z,96130.25
2018-03-07T11:48:23.825Z,96130.66
2018-03-07T11:50:53.409Z,96129.45
2018-03-07T11:53:23.723Z,96139.20
2018-03-07T11:55:53.500Z,96134.69
2018-03-07T11:58:24.079Z,96146.18
2018-03-07T12:00:53.549Z,96138.66
2018-03-07T12:03:24.307Z,96143.57
2018-03-07T12:06:01.858Z,96133.13
2018-03-07T12:08:31.738Z,96141.11
2018-03-07T12:11:01.425Z,96132.52
2018-03-07T12:13:31.973Z,96134.09
2018-03-07T12:16:01.654Z,96131.08
2018-03-07T12:18:31.396Z,96133.01
2018-03-07T12:21:01.510Z,96139.98
2018-03-07T12:23:30.972Z,96140.39
2018-03-07T12:26:01.661Z,96135.40
2018-03-07T12:28:31.154Z,96140.45
2018-03-07T12:31:01.371Z,96148.25
2018-03-07T12:33:59.510Z,96141.20
2018-03-07T12:37:04.038Z,96139.62
2018-03-07T12:42:45.923Z,96123.94
2018-03-07T12:45:17.452Z,96129.41
2018-03-07T12:47:47.721Z,96121.80
2018-03-07T12:50:18.031Z,96120.98
2018-03-07T12:52:47.704Z,96123.31
2018-03-07T12:55:19.810Z,96118.00
2018-03-07T12:57:56.952Z,96117.76
2018-03-07T13:00:27.592Z,96109.56
2018-03-07T13:02:58.323Z,96105.80
2018-03-07T13:05:29.802Z,96109.50
2018-03-07T13:08:00.161Z,96110.58
2018-03-07T13:10:30.077Z,96105.61
2018-03-07T13:12:59.943Z,96110.20
2018-03-07T13:15:29.819Z,96107.31
2018-03-07T13:18:01.919Z,96106.91
2018-03-07T13:20:32.523Z,96103.28
2018-03-07T13:23:04.485Z,96109.38
2018-03-07T13:25:37.166Z,96099.66
2018-03-07T13:28:08.485Z,96105.61
2018-03-07T13:30:39.083Z,96109.44
2018-03-07T13:33:09.598Z,96095.84
2018-03-07T13:35:39.312Z,96106.20
2018-03-07T13:38:09.028Z,96103.16
2018-03-07T13:40:38.902Z,96111.67
2018-03-07T13:43:09.277Z,96107.48
2018-03-07T13:45:39.007Z,96106.37
2018-03-07T13:48:11.033Z,96108.76
2018-03-07T13:50:40.894Z,96112.67
2018-03-07T13:53:10.680Z,96113.73
2018-03-07T13:55:41.195Z,96113.55
2018-03-07T13:58:10.768Z,96111.44
2018-03-07T14:00:40.408Z,96097.84
2018-03-07T14:03:09.907Z,96098.09
2018-03-07T14:05:39.413Z,96101.63
2018-03-07T14:08:08.936Z,96103.30
2018-03-07T14:10:38.830Z,96099.66
2018-03-07T14:13:08.319Z,96088.33
2018-03-07T14:15:39.045Z,96090.22
2018-03-07T14:18:09.512Z,96090.10
2018-03-07T14:20:39.217Z,96088.86
2018-03-07T14:23:09.878Z,96081.78
2018-03-07T14:25:39.666Z,96072.98
2018-03-07T14:28:09.383Z,96064.80
2018-03-07T14:30:39.166Z,96062.45
2018-03-07T14:33:09.406Z,96074.95
2018-03-07T14:35:38.974Z,96068.52
2018-03-07T14:38:09.547Z,96065.80
2018-03-07T14:40:40.087Z,96074.80
2018-03-07T14:43:10.643Z,96071.65
2018-03-07T14:45:40.793Z,96077.50
2018-03-07T14:48:10.406Z,96075.05
2018-03-07T14:50:39.958Z,96084.55
2018-03-07T14:53:09.528Z,96082.22
2018-03-07T14:55:39.020Z,96075.07
2018-03-07T14:58:11.027Z,96078.05
2018-03-07T15:00:41.880Z,96076.60
2018-03-07T15:03:11.547Z,96075.37
2018-03-07T15:05:41.144Z,96086.83
2018-03-07T15:08:10.635Z,96081.66
2018-03-07T15:10:41.125Z,96084.69
2018-03-07T15:13:10.690Z,96091.64
2018-03-07T15:15:41.042Z,96100.00
2018-03-07T15:18:12.248Z,96103.03
2018-03-07T15:20:43.206Z,96108.20
2018-03-07T15:23:13.824Z,96101.15
2018-03-07T15:25:45.213Z,96104.23
2018-03-07T15:28:14.716Z,96105.20
2018-03-07T15:30:45.403Z,96112.66
2018-03-07T15:33:17.565Z,96111.85
2018-03-07T15:35:47.382Z,96109.92
2018-03-07T15:38:28.844Z,96122.03
2018-03-07T15:40:59.763Z,96124.17
2018-03-07T15:43:30.025Z,96124.98
2018-03-07T15:46:00.317Z,96123.61
2018-03-07T15:48:30.867Z,96134.70
2018-03-07T15:51:01.549Z,96134.00
2018-03-07T15:53:31.204Z,96136.36
2018-03-07T15:56:00.991Z,96145.54
2018-03-07T15:58:30.478Z,96146.66
2018-03-07T16:01:00.086Z,96149.98
2018-03-07T16:03:30.605Z,96146.84
2018-03-07T16:06:00.521Z,96152.73
2018-03-07T16:08:31.432Z,96150.55
2018-03-07T16:11:01.246Z,96149.98
2018-03-07T16:13:30.991Z,96156.99
2018-03-07T16:16:01.080Z,96148.94
2018-03-07T16:18:31.480Z,96148.56
2018-03-07T16:21:01.180Z,96142.69
2018-03-07T16:23:30.888Z,96141.48
2018-03-07T16:26:00.555Z,96146.14
2018-03-07T16:28:30.239Z,96157.28
2018-03-07T16:30:59.866Z,96160.98
2018-03-07T16:33:29.506Z,96154.89
2018-03-07T16:36:08.661Z,96160.13
2018-03-07T16:38:43.599Z,96167.91
2018-03-07T16:41:14.470Z,96169.27
2018-03-07T16:43:47.139Z,96172.92
2018-03-07T16:46:17.366Z,96177.98
2018-03-07T16:48:48.076Z,96181.53
2018-03-07T16:51:17.869Z,96198.33
2018-03-07T16:54:08.591Z,96200.09
2018-03-07T16:56:57.098Z,96203.18
2018-03-07T16:59:40.120Z,96201.75
2018-03-07T17:05:55.756Z,96182.13
2018-03-07T17:08:25.229Z,96180.77
2018-03-07T17:10:54.888Z,96175.23
2018-03-07T17:13:25.162Z,96180.30
2018-03-07T17:15:55.368Z,96172.03
2018-03-07T17:18:25.722Z,96171.66
2018-03-07T17:20:55.220Z,96167.31
2018-03-07T17:23:24.764Z,96173.13
2018-03-07T17:25:55.076Z,96178.20
2018-03-07T17:28:25.871Z,96175.46
2018-03-07T17:31:02.617Z,96174.84
2018-03-07T17:33:38.860Z,96174.03
2018-03-07T17:36:26.726Z,96172.91
2018-03-07T17:39:02.877Z,96162.94
2018-03-07T17:42:10.550Z,96145.44
2018-03-07T17:44:48.930Z,96148.17
2018-03-07T17:47:26.427Z,96166.67
2018-03-07T17:49:57.776Z,96171.47
2018-03-07T17:52:28.753Z,96210.73
2018-03-07T17:55:12.715Z,96184.28
2018-03-07T17:57:49.304Z,96185.90
2018-03-07T18:00:25.149Z,96210.62
2018-03-07T18:02:56.713Z,96215.03
2018-03-07T18:05:27.060Z,96225.97
2018-03-07T18:07:56.916Z,96216.09
2018-03-07T18:10:26.836Z,96212.05
2018-03-07T18:12:59.997Z,96215.59
2018-03-07T18:15:32.193Z,96221.22
2018-03-07T18:18:03.200Z,96228.41
2018-03-07T18:20:33.955Z,96243.23
2018-03-07T18:23:29.853Z,96245.56
2018-03-07T18:26:00.617Z,96244.54
2018-03-07T18:28:31.640Z,96247.28
2018-03-07T18:31:01.364Z,96258.09
2018-03-07T18:33:32.004Z,96254.80
2018-03-07T18:36:03.038Z,96259.93
2018-03-07T18:38:32.864Z,96263.63
2018-03-07T18:41:03.751Z,96272.52
2018-03-07T18:43:37.437Z,96271.55
2018-03-07T18:46:07.920Z,96279.83
2018-03-07T18:48:39.850Z,96278.92
2018-03-07T18:51:10.228Z,96286.23
2018-03-07T18:53:44.011Z,96299.98
2018-03-07T18:56:28.869Z,96294.97
2018-03-07T18:59:00.206Z,96308.38
2018-03-07T19:01:33.052Z,96312.26
2018-03-07T19:04:06.819Z,96309.05
2018-03-07T19:06:38.249Z,96312.32
2018-03-07T19:09:21.147Z,96307.22
2018-03-07T19:12:00.356Z,96299.75
2018-03-07T19:14:31.502Z,96306.30
2018-03-07T19:17:01.558Z,96315.05
2018-03-07T19:19:32.138Z,96312.98
2018-03-07T19:22:02.380Z,96317.38
2018-03-07T19:24:32.367Z,96316.31
2018-03-07T19:30:34.333Z,96334.53
2018-03-07T19:33:08.912Z,96341.92
2018-03-07T19:35:38.477Z,96348.72
2018-03-07T19:38:08.286Z,96355.57
2018-03-07T19:40:38.391Z,96346.53
2018-03-07T19:43:09.108Z,96351.45
2018-03-07T19:45:40.508Z,96350.63
2018-03-07T19:48:10.233Z,96349.38
2018-03-07T19:50:39.814Z,96351.66
2018-03-07T19:53:09.320Z,96364.22
2018-03-07T19:55:40.388Z,96377.80
2018-03-07T19:58:14.239Z,96373.14
2018-03-07T20:00:46.478Z,96372.76
2018-03-07T20:26:46.562Z,96414.72
2018-03-07T20:29:19.167Z,96412.69
2018-03-07T20:31:49.341Z,96406.55
2018-03-07T20:34:18.934Z,96417.03
2018-03-07T20:36:49.946Z,96409.44
2018-03-07T20:39:19.706Z,96420.75
2018-03-07T20:41:49.198Z,96421.23
2018-03-07T20:44:19.784Z,96428.41
2018-03-07T20:46:49.309Z,96441.77
2018-03-07T20:49:21.527Z,96449.48
2018-03-07T20:51:51.052Z,96447.80
2018-03-07T20:54:20.587Z,96446.16
2018-03-07T20:56:50.134Z,96454.39
2018-03-07T20:59:19.695Z,96451.80
2018-03-07T21:01:50.019Z,96452.90
2018-03-07T21:04:20.098Z,96448.02
2018-03-07T21:06:51.335Z,96453.80
2018-03-07T21:09:20.876Z,96456.48
2018-03-07T21:11:52.166Z,96456.41
2018-03-07T21:14:21.889Z,96456.36
2018-03-07T21:16:51.610Z,96459.45
2018-03-07T21:19:21.301Z,96456.08
2018-03-07T21:21:50.904Z,96462.47
2018-03-07T21:24:20.420Z,96458.55
2018-03-07T21:26:49.914Z,96473.38
2018-03-07T21:29:19.532Z,96483.16
2018-03-07T21:31:49.058Z,96487.21
2018-03-07T21:34:18.554Z,96492.85
2018-03-07T21:36:48.209Z,96490.86
2018-03-07T21:39:18.516Z,96494.72
2018-03-07T21:41:48.273Z,96495.06
2018-03-07T21:44:19.551Z,96499.92
2018-03-07T21:46:50.287Z,96497.94
2018-03-07T21:49:20.937Z,96493.98
2018-03-07T21:51:50.522Z,96488.44
2018-03-07T21:54:20.117Z,96494.88
2018-03-07T21:56:51.795Z,96501.52
2018-03-07T21:59:21.384Z,96501.45
2018-03-07T22:02:01.528Z,96505.91
2018-03-07T22:04:37.962Z,96503.52
2018-03-07T22:07:08.615Z,96497.97
2018-03-07T22:09:46.896Z,96499.28
2018-03-07T22:12:19.662Z,96500.98
2018-03-07T22:14:51.420Z,96502.05
2018-03-07T22:17:22.452Z,96510.05
2018-03-07T22:19:54.660Z,96510.77
2018-03-07T22:22:25.363Z,96517.55
2018-03-07T22:24:55.100Z,96508.90
2018-03-07T22:27:25.595Z,96510.02
2018-03-07T22:29:56.023Z,96514.06
2018-03-07T22:32:25.816Z,96518.36
2018-03-07T22:34:55.435Z,96511.45
2018-03-07T22:37:25.001Z,96519.61
2018-03-07T22:39:55.332Z,96528.54
2018-03-07T22:42:25.094Z,96523.99
2018-03-07T22:44:55.708Z,96514.90
2018-03-07T22:47:26.227Z,96529.91
2018-03-07T22:49:56.036Z,96532.58
2018-03-07T22:52:25.779Z,96558.50
2018-03-07T22:54:55.593Z,96537.89
2018-03-07T22:57:25.241Z,96531.95
2018-03-07T22:59:55.468Z,96540.09
2018-03-07T23:02:25.843Z,96558.23
2018-03-07T23:04:56.416Z,96566.39
2018-03-07T23:07:26.103Z,96552.07
2018-03-07T23:09:56.615Z,96549.67
2018-03-07T23:12:26.323Z,96541.39
2018-03-07T23:14:56.142Z,96553.65
2018-03-07T23:17:25.727Z,96548.51
2018-03-07T23:19:55.355Z,96551.18
2018-03-07T23:22:24.976Z,96544.64
2018-03-07T23:24:55.791Z,96553.20
2018-03-07T23:27:27.146Z,96560.78
2018-03-07T23:29:57.482Z,96555.46
2018-03-07T23:32:26.977Z,96559.91
2018-03-07T23:34:56.549Z,96558.47
2018-03-07T23:37:26.198Z,96562.36
2018-03-07T23:39:57.155Z,96561.14
2018-03-07T23:42:26.615Z,96568.33
2018-03-07T23:44:56.205Z,96571.80
2018-03-07T23:47:27.607Z,96580.77
2018-03-07T23:49:57.518Z,96589.31
2018-03-07T23:52:27.399Z,96604.11
2018-03-07T23:54:56.934Z,96613.07
2018-03-07T23:57:26.842Z,96612.25
2018-03-07T23:59:56.330Z,96613.96
